createdAt,value
2022-07-29T00:01:03.843Z,15.70
2022-07-29T00:03:30.521Z,15.70
2022-07-29T00:05:57.175Z,15.70
2022-07-29T00:08:23.832Z,15.60
2022-07-29T00:10:51.920Z,15.60
2022-07-29T00:13:18.532Z,15.20
2022-07-29T00:15:59.012Z,15.60
2022-07-29T00:18:31.661Z,15.50
2022-07-29T00:20:58.266Z,15.50
2022-07-29T00:23:24.907Z,15.20
2022-07-29T00:25:51.498Z,15.50
2022-07-29T00:28:18.103Z,15.50
2022-07-29T00:30:44.762Z,15.40
2022-07-29T00:33:11.458Z,15.40
2022-07-29T00:35:47.201Z,15.40
2022-07-29T00:38:15.894Z,15.40
2022-07-29T00:40:44.014Z,15.30
2022-07-29T00:43:11.878Z,15.30
2022-07-29T00:45:38.537Z,15.30
2022-07-29T00:48:06.012Z,15.30
2022-07-29T00:50:33.384Z,15.20
2022-07-29T00:53:00.412Z,15.10
2022-07-29T00:55:27.029Z,15.10
2022-07-29T00:57:54.479Z,15.20
2022-07-29T01:00:24.204Z,15.10
2022-07-29T01:02:51.785Z,15.10
2022-07-29T01:05:20.536Z,15.00
2022-07-29T01:07:49.307Z,15.00
2022-07-29T01:10:17.215Z,15.00
2022-07-29T01:12:46.868Z,15.00
2022-07-29T01:15:13.755Z,15.00
2022-07-29T01:17:53.201Z,15.00
2022-07-29T01:20:56.565Z,15.00
2022-07-29T01:24:02.633Z,15.00
2022-07-29T01:26:41.787Z,15.10
2022-07-29T01:29:12.161Z,15.00
2022-07-29T01:32:00.971Z,15.00
2022-07-29T01:34:49.833Z,15.00
2022-07-29T01:37:23.028Z,15.00
2022-07-29T01:39:53.166Z,14.90
2022-07-29T01:42:36.367Z,14.90
2022-07-29T01:45:42.392Z,14.90
2022-07-29T01:48:23.390Z,14.90
2022-07-29T01:50:54.570Z,14.80
2022-07-29T01:53:37.840Z,14.80
2022-07-29T01:56:07.113Z,14.80
2022-07-29T01:58:35.935Z,14.70
2022-07-29T02:01:04.497Z,14.70
2022-07-29T02:03:32.462Z,14.70
2022-07-29T02:06:00.807Z,14.60
2022-07-29T02:08:29.037Z,14.50
2022-07-29T02:10:57.102Z,14.50
2022-07-29T02:13:26.998Z,14.50
2022-07-29T02:15:55.029Z,14.40
2022-07-29T02:18:25.080Z,14.40
2022-07-29T02:20:56.774Z,14.40
2022-07-29T02:23:25.550Z,14.40
2022-07-29T02:25:55.064Z,14.30
2022-07-29T02:28:25.078Z,14.30
2022-07-29T02:30:54.313Z,14.30
2022-07-29T02:33:22.584Z,14.30
2022-07-29T02:35:50.791Z,14.30
2022-07-29T02:38:37.144Z,14.20
2022-07-29T02:41:09.987Z,14.20
2022-07-29T02:43:37.478Z,14.30
2022-07-29T02:46:28.003Z,14.30
2022-07-29T02:49:33.201Z,14.30
2022-07-29T02:52:05.044Z,14.30
2022-07-29T02:54:51.793Z,14.30
2022-07-29T02:57:35.654Z,14.30
2022-07-29T03:00:24.474Z,14.40
2022-07-29T03:02:54.598Z,14.50
2022-07-29T03:05:23.304Z,14.50
2022-07-29T03:07:54.508Z,14.50
2022-07-29T03:10:22.113Z,14.50
2022-07-29T03:12:49.524Z,14.60
2022-07-29T03:15:16.854Z,14.60
2022-07-29T03:17:44.365Z,14.60
2022-07-29T03:20:12.661Z,14.60
2022-07-29T03:22:44.572Z,14.70
2022-07-29T03:25:13.438Z,14.70
2022-07-29T03:27:40.333Z,14.70
2022-07-29T03:30:09.068Z,14.70
2022-07-29T03:32:36.152Z,14.70
2022-07-29T03:35:03.630Z,14.70
2022-07-29T03:37:31.517Z,14.70
2022-07-29T03:39:59.410Z,14.60
2022-07-29T03:42:34.199Z,14.70
2022-07-29T03:45:04.238Z,14.70
2022-07-29T03:47:49.512Z,14.80
2022-07-29T03:50:20.348Z,14.80
2022-07-29T03:52:48.003Z,14.80
2022-07-29T03:55:15.658Z,14.80
2022-07-29T03:57:43.462Z,14.80
2022-07-29T04:00:10.689Z,14.80
2022-07-29T04:02:38.737Z,14.80
2022-07-29T04:05:05.813Z,14.80
2022-07-29T04:07:32.477Z,14.90
2022-07-29T04:09:59.092Z,14.90
2022-07-29T04:12:25.830Z,14.60
2022-07-29T04:14:52.407Z,14.90
2022-07-29T04:17:19.038Z,14.90
2022-07-29T04:19:46.029Z,15.00
2022-07-29T04:22:12.691Z,15.00
2022-07-29T04:24:42.834Z,15.10
2022-07-29T04:27:10.972Z,15.10
2022-07-29T04:29:37.547Z,15.10
2022-07-29T04:32:23.947Z,15.20
2022-07-29T04:34:50.528Z,15.20
2022-07-29T04:37:17.158Z,15.20
2022-07-29T04:39:43.816Z,15.20
2022-07-29T04:42:10.427Z,15.30
2022-07-29T04:44:37.254Z,15.40
2022-07-29T04:47:08.873Z,15.40
2022-07-29T04:49:35.461Z,15.50
2022-07-29T04:52:02.097Z,15.50
2022-07-29T04:54:28.760Z,15.50
2022-07-29T04:56:55.328Z,15.30
2022-07-29T04:59:21.983Z,15.60
2022-07-29T05:01:48.659Z,15.60
2022-07-29T05:04:15.595Z,15.70
2022-07-29T05:06:42.482Z,15.70
2022-07-29T05:09:09.059Z,15.70
2022-07-29T05:11:35.645Z,15.80
2022-07-29T05:14:02.258Z,15.90
2022-07-29T05:16:29.865Z,15.90
2022-07-29T05:18:56.485Z,16.00
2022-07-29T05:21:23.086Z,16.20
2022-07-29T05:23:49.668Z,16.30
2022-07-29T05:26:16.337Z,16.40
2022-07-29T05:28:42.903Z,16.60
2022-07-29T05:31:09.538Z,16.80
2022-07-29T05:33:37.099Z,17.00
2022-07-29T05:36:07.496Z,17.10
2022-07-29T05:38:35.406Z,17.30
2022-07-29T05:41:02.327Z,17.10
2022-07-29T05:43:29.725Z,17.20
2022-07-29T05:45:57.048Z,17.30
2022-07-29T05:48:23.872Z,17.20
2022-07-29T05:50:50.526Z,17.20
2022-07-29T05:53:19.565Z,17.20
2022-07-29T05:55:47.321Z,17.20
2022-07-29T05:58:13.939Z,17.30
2022-07-29T06:00:41.011Z,17.30
2022-07-29T06:03:07.860Z,17.30
2022-07-29T06:05:34.800Z,17.40
2022-07-29T06:08:01.559Z,17.60
2022-07-29T06:10:28.285Z,17.70
2022-07-29T06:12:55.170Z,17.80
2022-07-29T06:15:21.946Z,18.00
2022-07-29T06:18:00.338Z,18.10
2022-07-29T06:20:31.825Z,18.20
2022-07-29T06:22:59.376Z,18.50
2022-07-29T06:25:26.169Z,18.60
2022-07-29T06:27:53.187Z,18.80
2022-07-29T06:30:19.839Z,19.00
2022-07-29T06:32:46.531Z,19.30
2022-07-29T06:35:37.872Z,19.50
2022-07-29T06:38:00.020Z,19.70
2022-07-29T06:40:45.737Z,19.70
2022-07-29T06:43:12.366Z,19.80
2022-07-29T06:45:42.172Z,19.90
2022-07-29T06:48:09.886Z,19.80
2022-07-29T06:50:36.559Z,19.70
2022-07-29T06:53:03.428Z,19.70
2022-07-29T06:55:30.062Z,19.80
2022-07-29T06:57:56.690Z,19.80
2022-07-29T07:00:23.348Z,19.90
2022-07-29T07:02:49.981Z,20.00
2022-07-29T07:05:16.666Z,20.00
2022-07-29T07:07:43.246Z,20.10
2022-07-29T07:10:10.097Z,20.20
2022-07-29T07:12:36.695Z,20.30
2022-07-29T07:15:04.057Z,20.50
2022-07-29T07:17:30.665Z,20.70
2022-07-29T07:19:57.228Z,20.80
2022-07-29T07:22:23.820Z,20.80
2022-07-29T07:24:50.404Z,20.90
2022-07-29T07:27:17.048Z,21.00
2022-07-29T07:29:44.271Z,21.20
2022-07-29T07:32:11.376Z,21.20
2022-07-29T07:34:38.976Z,21.20
2022-07-29T07:37:06.438Z,21.40
2022-07-29T07:39:33.062Z,21.40
2022-07-29T07:41:59.954Z,21.40
2022-07-29T07:44:26.916Z,21.50
2022-07-29T07:46:53.599Z,21.50
2022-07-29T07:49:21.545Z,21.70
2022-07-29T07:51:50.598Z,21.80
2022-07-29T07:54:20.512Z,22.00
2022-07-29T07:56:49.911Z,22.10
2022-07-29T07:59:19.715Z,22.20
2022-07-29T08:01:47.837Z,21.80
2022-07-29T08:04:27.310Z,22.80
2022-07-29T08:06:57.923Z,23.50
2022-07-29T08:09:30.338Z,24.00
2022-07-29T08:11:58.849Z,24.10
2022-07-29T08:14:25.500Z,24.00
2022-07-29T08:16:52.555Z,23.90
2022-07-29T08:19:19.323Z,23.80
2022-07-29T08:21:46.133Z,23.70
2022-07-29T08:24:31.245Z,23.60
2022-07-29T08:26:57.835Z,23.50
2022-07-29T08:29:24.451Z,23.50
2022-07-29T08:31:51.278Z,23.50
2022-07-29T08:34:18.268Z,23.50
2022-07-29T08:36:44.867Z,23.50
2022-07-29T08:39:17.379Z,23.60
2022-07-29T08:41:56.858Z,23.80
2022-07-29T08:44:30.919Z,23.90
2022-07-29T08:46:58.055Z,24.10
2022-07-29T08:49:24.826Z,24.20
2022-07-29T08:51:52.427Z,24.20
2022-07-29T08:54:19.763Z,24.30
2022-07-29T08:56:50.792Z,24.50
2022-07-29T08:59:21.935Z,24.60
2022-07-29T09:01:52.987Z,24.70
2022-07-29T09:04:21.615Z,24.70
2022-07-29T09:06:52.188Z,24.60
2022-07-29T09:09:18.852Z,24.50
2022-07-29T09:11:45.496Z,24.40
2022-07-29T09:14:14.246Z,24.30
2022-07-29T09:16:59.055Z,24.20
2022-07-29T09:19:33.189Z,24.30
2022-07-29T09:22:03.055Z,24.40
2022-07-29T09:24:42.644Z,24.60
2022-07-29T09:27:27.766Z,24.70
2022-07-29T09:30:25.752Z,24.80
2022-07-29T09:33:02.103Z,24.90
2022-07-29T09:35:30.096Z,25.00
2022-07-29T09:37:57.242Z,25.00
2022-07-29T09:40:26.365Z,25.00
2022-07-29T09:42:56.430Z,25.00
2022-07-29T09:45:34.118Z,25.00
2022-07-29T09:48:13.999Z,25.10
2022-07-29T09:50:42.889Z,25.20
2022-07-29T09:53:12.483Z,25.00
2022-07-29T09:55:52.350Z,25.50
2022-07-29T09:58:21.627Z,25.60
2022-07-29T10:00:50.625Z,25.70
2022-07-29T10:03:18.318Z,25.60
2022-07-29T10:05:46.213Z,25.40
2022-07-29T10:08:13.780Z,25.30
2022-07-29T10:10:43.911Z,25.40
2022-07-29T10:13:15.751Z,25.60
2022-07-29T10:15:46.256Z,25.80
2022-07-29T10:18:14.189Z,25.80
2022-07-29T10:20:41.279Z,25.90
2022-07-29T10:23:07.909Z,26.00
2022-07-29T10:25:34.718Z,26.00
2022-07-29T10:28:01.387Z,25.90
2022-07-29T10:30:28.328Z,26.00
2022-07-29T10:32:58.766Z,26.00
2022-07-29T10:35:59.107Z,26.10
2022-07-29T10:38:45.715Z,26.20
2022-07-29T10:41:32.580Z,26.30
2022-07-29T10:44:17.423Z,26.10
2022-07-29T10:46:46.779Z,25.90
2022-07-29T10:49:19.207Z,25.90
2022-07-29T10:52:06.994Z,25.80
2022-07-29T10:54:44.494Z,26.10
2022-07-29T10:57:17.783Z,26.30
2022-07-29T10:59:46.429Z,26.40
2022-07-29T11:02:42.316Z,26.60
2022-07-29T11:05:15.627Z,26.70
2022-07-29T11:08:19.800Z,26.60
2022-07-29T11:10:51.900Z,26.60
2022-07-29T11:13:49.049Z,26.60
2022-07-29T11:16:16.759Z,26.50
2022-07-29T11:19:11.261Z,26.50
2022-07-29T11:22:05.177Z,26.60
2022-07-29T11:24:30.102Z,26.60
2022-07-29T11:27:14.392Z,26.60
2022-07-29T11:32:48.541Z,26.70
2022-07-29T11:35:37.131Z,26.80
2022-07-29T11:38:27.902Z,26.80
2022-07-29T11:41:27.367Z,27.00
2022-07-29T11:43:59.123Z,26.90
2022-07-29T11:46:51.907Z,27.00
2022-07-29T11:49:32.158Z,27.10
2022-07-29T11:52:02.623Z,27.10
2022-07-29T11:54:57.030Z,27.30
2022-07-29T11:57:36.416Z,27.30
2022-07-29T12:00:10.040Z,27.60
2022-07-29T12:02:43.045Z,27.60
2022-07-29T12:05:14.518Z,27.50
2022-07-29T12:07:45.477Z,27.60
2022-07-29T12:10:19.959Z,27.50
2022-07-29T12:12:57.155Z,27.40
2022-07-29T12:15:25.047Z,27.40
2022-07-29T12:18:13.966Z,27.40
2022-07-29T12:20:40.752Z,27.50
2022-07-29T12:23:09.827Z,27.50
2022-07-29T12:25:38.071Z,27.60
2022-07-29T12:28:26.639Z,27.60
2022-07-29T12:30:54.462Z,27.40
2022-07-29T12:33:29.662Z,27.50
2022-07-29T12:36:07.644Z,27.60
2022-07-29T12:38:36.883Z,27.60
2022-07-29T12:41:04.947Z,27.60
2022-07-29T12:43:32.419Z,27.60
2022-07-29T12:46:11.999Z,27.50
2022-07-29T12:48:41.184Z,27.70
2022-07-29T12:51:09.677Z,27.70
2022-07-29T12:53:37.005Z,27.70
2022-07-29T12:56:15.520Z,27.60
2022-07-29T12:58:52.686Z,27.50
2022-07-29T13:01:20.865Z,27.30
2022-07-29T13:04:05.003Z,27.20
2022-07-29T13:06:33.098Z,27.10
2022-07-29T13:09:06.176Z,27.10
2022-07-29T13:11:38.379Z,27.20
2022-07-29T13:14:06.998Z,27.40
2022-07-29T13:16:33.959Z,27.50
2022-07-29T13:19:08.643Z,27.50
2022-07-29T13:21:35.373Z,27.10
2022-07-29T13:24:02.182Z,27.10
2022-07-29T13:26:28.874Z,27.20
2022-07-29T13:28:56.080Z,27.30
2022-07-29T13:31:23.037Z,27.50
2022-07-29T13:33:49.905Z,27.70
2022-07-29T13:36:16.561Z,27.70
2022-07-29T13:38:43.223Z,27.70
2022-07-29T13:41:10.176Z,27.30
2022-07-29T13:43:37.452Z,27.30
2022-07-29T13:46:04.099Z,27.30
2022-07-29T13:48:30.831Z,27.30
2022-07-29T13:50:57.745Z,27.20
2022-07-29T13:53:27.212Z,27.10
2022-07-29T13:55:54.719Z,27.20
2022-07-29T13:58:21.362Z,27.40
2022-07-29T14:00:48.244Z,27.60
2022-07-29T14:03:14.809Z,27.50
2022-07-29T14:05:41.451Z,27.90
2022-07-29T14:08:08.041Z,28.00
2022-07-29T14:10:34.675Z,28.10
2022-07-29T14:13:02.048Z,28.20
2022-07-29T14:15:28.740Z,28.30
2022-07-29T14:17:55.325Z,28.30
2022-07-29T14:20:22.016Z,28.30
2022-07-29T14:22:49.276Z,28.40
2022-07-29T14:25:16.872Z,28.40
2022-07-29T14:27:44.668Z,28.60
2022-07-29T14:30:11.753Z,28.70
2022-07-29T14:32:38.348Z,28.90
2022-07-29T14:35:06.499Z,29.00
2022-07-29T14:37:39.729Z,28.80
2022-07-29T14:40:07.754Z,28.70
2022-07-29T14:42:34.345Z,28.60
2022-07-29T14:45:01.127Z,28.30
2022-07-29T14:47:27.792Z,28.10
2022-07-29T14:49:54.456Z,28.00
2022-07-29T14:52:21.068Z,27.90
2022-07-29T14:54:47.676Z,27.90
2022-07-29T14:57:14.334Z,28.00
2022-07-29T14:59:40.954Z,28.20
2022-07-29T15:02:07.663Z,28.20
2022-07-29T15:04:34.453Z,28.40
2022-07-29T15:07:01.217Z,28.60
2022-07-29T15:09:27.935Z,28.70
2022-07-29T15:11:54.750Z,30.90
2022-07-29T15:14:21.350Z,28.70
2022-07-29T15:16:48.365Z,28.60
2022-07-29T15:19:15.399Z,28.50
2022-07-29T15:21:48.696Z,28.30
2022-07-29T15:24:16.577Z,28.40
2022-07-29T15:26:44.225Z,28.40
2022-07-29T15:29:10.898Z,28.30
2022-07-29T15:31:37.628Z,28.20
2022-07-29T15:34:06.298Z,28.10
2022-07-29T15:36:51.620Z,28.00
2022-07-29T15:39:20.360Z,27.90
2022-07-29T15:41:47.055Z,27.80
2022-07-29T15:44:13.775Z,27.80
2022-07-29T15:46:59.416Z,27.70
2022-07-29T15:49:48.245Z,27.50
2022-07-29T15:52:25.333Z,27.40
2022-07-29T15:54:54.306Z,27.30
2022-07-29T15:57:20.886Z,27.20
2022-07-29T15:59:47.538Z,27.10
2022-07-29T16:02:14.196Z,27.10
2022-07-29T16:04:41.091Z,27.00
2022-07-29T16:07:07.827Z,27.00
2022-07-29T16:09:34.628Z,27.00
2022-07-29T16:12:01.343Z,27.00
2022-07-29T16:14:28.696Z,27.00
2022-07-29T16:16:56.359Z,27.00
2022-07-29T16:19:23.397Z,27.10
2022-07-29T16:21:50.006Z,27.10
2022-07-29T16:24:16.667Z,27.10
2022-07-29T16:26:43.287Z,27.10
2022-07-29T16:29:09.886Z,27.10
2022-07-29T16:31:36.665Z,27.00
2022-07-29T16:34:03.352Z,27.00
2022-07-29T16:36:29.937Z,27.00
2022-07-29T16:38:56.544Z,27.00
2022-07-29T16:41:23.288Z,26.90
2022-07-29T16:43:49.897Z,26.90
2022-07-29T16:46:18.907Z,26.80
2022-07-29T16:48:45.885Z,26.80
2022-07-29T16:51:14.544Z,26.70
2022-07-29T16:53:41.603Z,26.70
2022-07-29T16:56:12.672Z,26.60
2022-07-29T16:58:43.610Z,26.60
2022-07-29T17:01:10.797Z,26.60
2022-07-29T17:04:00.087Z,26.50
2022-07-29T17:06:28.577Z,26.50
2022-07-29T17:08:56.253Z,26.50
2022-07-29T17:11:22.834Z,26.50
2022-07-29T17:14:10.121Z,26.40
2022-07-29T17:16:36.797Z,26.30
2022-07-29T17:19:03.609Z,26.30
2022-07-29T17:21:30.188Z,26.30
2022-07-29T17:23:58.760Z,26.20
2022-07-29T17:26:27.402Z,26.20
2022-07-29T17:28:55.400Z,26.00
2022-07-29T17:31:22.433Z,26.10
2022-07-29T17:33:49.117Z,26.00
2022-07-29T17:36:24.772Z,26.00
2022-07-29T17:38:53.276Z,26.00
2022-07-29T17:41:21.153Z,25.80
2022-07-29T17:43:48.423Z,25.90
2022-07-29T17:46:15.695Z,25.80
2022-07-29T17:48:42.600Z,25.70
2022-07-29T17:51:09.408Z,25.60
2022-07-29T17:53:36.551Z,25.60
2022-07-29T17:56:04.542Z,25.50
2022-07-29T17:58:32.444Z,25.50
2022-07-29T18:00:59.253Z,25.50
2022-07-29T18:03:26.448Z,25.40
2022-07-29T18:05:53.594Z,25.30
2022-07-29T18:08:20.320Z,25.30
2022-07-29T18:10:47.294Z,25.30
2022-07-29T18:13:14.160Z,25.10
2022-07-29T18:15:41.072Z,25.10
2022-07-29T18:18:07.659Z,25.10
2022-07-29T18:20:34.809Z,24.90
2022-07-29T18:23:01.582Z,25.00
2022-07-29T18:25:28.899Z,24.90
2022-07-29T18:28:00.168Z,24.90
2022-07-29T18:30:27.840Z,24.80
2022-07-29T18:33:19.228Z,24.80
2022-07-29T18:35:41.117Z,24.80
2022-07-29T18:38:07.731Z,24.70
2022-07-29T18:40:34.527Z,24.60
2022-07-29T18:43:01.257Z,24.40
2022-07-29T18:45:28.275Z,24.50
2022-07-29T18:47:56.218Z,24.50
2022-07-29T18:50:28.853Z,24.40
2022-07-29T18:52:58.401Z,24.40
2022-07-29T18:55:25.754Z,24.30
2022-07-29T18:57:54.959Z,24.30
2022-07-29T19:00:24.051Z,24.20
2022-07-29T19:02:51.145Z,24.10
2022-07-29T19:05:18.240Z,24.00
2022-07-29T19:07:44.857Z,24.00
2022-07-29T19:10:12.202Z,23.80
2022-07-29T19:12:39.119Z,23.70
2022-07-29T19:15:07.488Z,23.50
2022-07-29T19:17:34.089Z,23.40
2022-07-29T19:20:00.719Z,23.40
2022-07-29T19:22:27.743Z,23.40
2022-07-29T19:24:54.357Z,23.30
2022-07-29T19:27:20.985Z,23.30
2022-07-29T19:29:47.642Z,23.30
2022-07-29T19:32:14.599Z,23.20
2022-07-29T19:35:10.469Z,23.10
2022-07-29T19:37:37.360Z,22.90
2022-07-29T19:40:05.192Z,22.80
2022-07-29T19:42:31.820Z,22.70
2022-07-29T19:44:58.449Z,22.60
2022-07-29T19:47:25.011Z,22.60
2022-07-29T19:49:51.669Z,22.50
2022-07-29T19:52:18.345Z,22.50
2022-07-29T19:54:45.055Z,22.50
2022-07-29T19:57:11.646Z,22.50
2022-07-29T19:59:38.744Z,22.40
2022-07-29T20:02:05.750Z,22.30
2022-07-29T20:04:32.750Z,22.20
2022-07-29T20:07:01.719Z,22.20
2022-07-29T20:09:28.897Z,22.10
2022-07-29T20:11:55.556Z,22.00
2022-07-29T20:14:22.714Z,21.90
2022-07-29T20:16:50.550Z,22.00
2022-07-29T20:19:17.720Z,21.90
2022-07-29T20:21:44.335Z,21.90
2022-07-29T20:24:11.145Z,21.90
2022-07-29T20:26:37.958Z,21.90
2022-07-29T20:29:05.285Z,21.90
2022-07-29T20:31:32.467Z,21.90
2022-07-29T20:34:00.102Z,21.90
2022-07-29T20:36:27.404Z,21.90
2022-07-29T20:38:55.010Z,21.90
2022-07-29T20:41:22.077Z,21.90
2022-07-29T20:43:51.773Z,21.80
2022-07-29T20:46:18.924Z,21.70
2022-07-29T20:48:47.071Z,21.70
2022-07-29T20:51:14.531Z,21.70
2022-07-29T20:53:41.551Z,21.40
2022-07-29T20:56:08.488Z,21.60
2022-07-29T20:58:36.206Z,21.50
2022-07-29T21:01:03.796Z,21.60
2022-07-29T21:03:30.608Z,21.60
2022-07-29T21:05:57.247Z,21.70
2022-07-29T21:08:23.947Z,21.70
2022-07-29T21:10:50.697Z,21.70
2022-07-29T21:13:17.679Z,21.80
2022-07-29T21:15:48.136Z,21.80
2022-07-29T21:18:30.489Z,21.80
2022-07-29T21:21:00.470Z,21.90
2022-07-29T21:23:27.491Z,21.80
2022-07-29T21:25:54.963Z,21.70
2022-07-29T21:28:28.955Z,21.80
2022-07-29T21:31:01.973Z,22.00
2022-07-29T21:33:30.896Z,21.80
2022-07-29T21:36:26.843Z,21.80
2022-07-29T21:38:44.126Z,21.80
2022-07-29T21:41:12.492Z,21.80
2022-07-29T21:43:41.866Z,21.70
2022-07-29T21:46:09.290Z,21.70
2022-07-29T21:48:36.000Z,21.70
2022-07-29T21:51:02.643Z,21.70
2022-07-29T21:53:29.274Z,21.70
2022-07-29T21:55:57.358Z,21.60
2022-07-29T21:58:24.622Z,21.60
2022-07-29T22:00:51.706Z,21.60
2022-07-29T22:03:18.446Z,21.60
2022-07-29T22:05:45.167Z,21.40
2022-07-29T22:08:11.821Z,21.60
2022-07-29T22:10:38.531Z,21.50
2022-07-29T22:13:05.187Z,21.50
2022-07-29T22:15:32.222Z,21.40
2022-07-29T22:17:59.204Z,21.30
2022-07-29T22:20:26.280Z,21.40
2022-07-29T22:22:53.560Z,21.20
2022-07-29T22:25:20.677Z,21.40
2022-07-29T22:27:47.787Z,21.30
2022-07-29T22:30:15.222Z,21.30
2022-07-29T22:32:42.147Z,21.30
2022-07-29T22:35:09.287Z,21.30
2022-07-29T22:37:36.023Z,21.20
2022-07-29T22:40:03.018Z,21.20
2022-07-29T22:42:30.353Z,21.20
2022-07-29T22:44:56.970Z,21.20
2022-07-29T22:47:46.559Z,21.20
2022-07-29T22:50:10.143Z,21.10
2022-07-29T22:52:36.899Z,21.10
2022-07-29T22:55:04.845Z,21.10
2022-07-29T22:57:31.515Z,21.10
2022-07-29T22:59:58.256Z,21.10
2022-07-29T23:02:24.854Z,21.10
2022-07-29T23:04:51.430Z,21.10
2022-07-29T23:07:18.036Z,21.00
2022-07-29T23:09:44.727Z,21.00
2022-07-29T23:12:11.296Z,21.00
2022-07-29T23:14:37.906Z,21.00
2022-07-29T23:17:05.270Z,20.90
2022-07-29T23:19:32.050Z,20.90
2022-07-29T23:21:58.846Z,20.80
2022-07-29T23:24:25.435Z,20.90
2022-07-29T23:26:53.827Z,20.80
2022-07-29T23:29:20.405Z,20.80
2022-07-29T23:31:48.208Z,20.70
2022-07-29T23:34:15.051Z,20.70
2022-07-29T23:36:42.250Z,20.70
2022-07-29T23:39:13.173Z,20.60
2022-07-29T23:41:39.864Z,20.60
2022-07-29T23:44:06.517Z,20.60
2022-07-29T23:46:33.174Z,20.60
2022-07-29T23:49:00.009Z,20.50
2022-07-29T23:51:28.888Z,20.50
2022-07-29T23:53:55.763Z,20.20
2022-07-29T23:56:22.625Z,20.40
2022-07-29T23:58:49.302Z,20.40
